Time;durP1;ratioP1;P1;durP2;ratioP2;P2;SDS_P1;SDS_P2;PMS_P1;PMS_P2;Temp;Humidity;BMP_temperature;BMP_pressure;BME280_temperature;BME280_humidity;BME280_pressure;Samples;Min_cycle;Max_cycle;Signal;HPM_P1;HPM_P2
2023/03/29 00:00:25;;;;;;;14.85;10.85;;;;;;;5.25;91.22;96456.94;4950813;29;20049;-67
2023/03/29 00:02:51;;;;;;;13.90;11.60;;;;;;;5.23;91.50;96454.41;4955225;29;20113;-66
2023/03/29 00:05:21;;;;;;;5.30;4.80;;;;;;;5.20;92.02;96462.41;4948248;29;20035;-66
2023/03/29 00:07:52;;;;;;;6.25;3.97;;;;;;;5.16;92.84;96469.56;4950759;29;20062;-66
2023/03/29 00:10:19;;;;;;;3.67;3.38;;;;;;;5.16;92.88;96473.97;4955916;29;20264;-66
2023/03/29 00:12:45;;;;;;;3.50;3.20;;;;;;;5.20;91.21;96478.06;4953676;29;20035;-66
2023/03/29 00:15:11;;;;;;;5.18;3.60;;;;;;;5.24;91.17;96469.13;4954436;29;20059;-66
2023/03/29 00:17:36;;;;;;;3.08;2.78;;;;;;;5.25;92.11;96472.59;4949102;29;20464;-66
2023/03/29 00:20:05;;;;;;;3.40;3.10;;;;;;;5.26;92.66;96475.09;4947970;29;20042;-66
2023/03/29 00:22:30;;;;;;;5.00;3.53;;;;;;;5.27;93.49;96468.13;4947513;29;20032;-66
2023/03/29 00:24:55;;;;;;;4.00;3.35;;;;;;;5.26;93.88;96458.59;4954128;29;20126;-66
2023/03/29 00:27:21;;;;;;;3.55;3.25;;;;;;;5.24;94.82;96463.09;4955233;29;20095;-67
2023/03/29 00:29:47;;;;;;;5.45;3.47;;;;;;;5.25;94.54;96464.75;4949759;29;20039;-66
2023/03/29 00:32:12;;;;;;;4.38;3.70;;;;;;;5.32;92.77;96473.91;4945133;29;20079;-66
2023/03/29 00:34:41;;;;;;;2.90;2.70;;;;;;;5.38;91.65;96483.97;4955134;29;20039;-66
2023/03/29 00:37:08;;;;;;;3.42;2.50;;;;;;;5.44;91.15;96462.75;4950569;29;20538;-66
2023/03/29 00:39:34;;;;;;;3.40;2.25;;;;;;;5.54;90.52;96426.47;4950287;29;20028;-66
2023/03/29 00:42:00;;;;;;;4.13;2.58;;;;;;;5.58;91.05;96417.50;4946663;29;20110;-66
2023/03/29 00:45:03;;;;;;;2.67;2.47;;;;;;;5.68;90.76;96381.22;4948669;29;20118;-66
2023/03/29 00:47:47;;;;;;;2.53;2.33;;;;;;;5.77;86.66;96364.13;4952085;29;20107;-66
2023/03/29 00:50:36;;;;;;;2.28;2.10;;;;;;;5.74;84.03;96377.38;4944024;29;20037;-66
2023/03/29 00:53:16;;;;;;;3.75;2.20;;;;;;;5.82;84.78;96382.13;4944828;29;20066;-66
2023/03/29 00:55:51;;;;;;;5.55;2.42;;;;;;;5.80;85.29;96377.00;4952644;29;20037;-66
2023/03/29 00:58:21;;;;;;;2.10;1.92;;;;;;;5.77;85.23;96374.59;4948234;29;20042;-66
2023/03/29 01:00:56;;;;;;;2.78;2.30;;;;;;;5.72;86.99;96366.16;4953325;29;20039;-66
2023/03/29 01:03:27;;;;;;;3.20;2.35;;;;;;;5.78;87.38;96373.66;4935836;29;20038;-66
2023/03/29 01:05:59;;;;;;;2.63;2.40;;;;;;;5.84;87.36;96396.78;4934632;29;20452;-66
2023/03/29 01:08:56;;;;;;;2.50;2.30;;;;;;;5.87;85.99;96409.66;4953357;29;20051;-66
2023/03/29 01:11:27;;;;;;;2.22;2.10;;;;;;;5.88;83.96;96424.41;4943751;29;20039;-66
2023/03/29 01:13:55;;;;;;;3.92;2.30;;;;;;;5.95;83.30;96460.59;4951927;29;20027;-66
2023/03/29 01:16:23;;;;;;;2.45;2.25;;;;;;;6.01;83.33;96508.16;4948006;29;20038;-67
2023/03/29 01:18:48;;;;;;;2.30;2.10;;;;;;;6.20;83.75;96527.13;4956648;29;20047;-66
2023/03/29 01:21:19;;;;;;;4.55;2.53;;;;;;;6.25;83.40;96536.34;4949861;29;20093;-66
2023/03/29 01:24:06;;;;;;;3.70;2.70;;;;;;;6.38;81.80;96522.53;4951769;29;20095;-66
2023/03/29 01:26:50;;;;;;;2.35;1.80;;;;;;;6.56;79.24;96491.75;4952286;28;20124;-66
2023/03/29 01:29:40;;;;;;;3.28;1.90;;;;;;;6.57;80.69;96493.41;4948888;29;20035;-66
2023/03/29 01:32:22;;;;;;;5.20;2.35;;;;;;;6.43;84.00;96484.69;4951212;29;20050;-66
2023/03/29 01:34:52;;;;;;;2.42;2.22;;;;;;;6.26;85.98;96477.88;4950241;29;20027;-66
2023/03/29 01:37:17;;;;;;;3.53;2.08;;;;;;;6.09;86.03;96465.84;4948197;29;20039;-66
2023/03/29 01:39:43;;;;;;;3.10;2.30;;;;;;;5.98;86.53;96469.09;4952051;29;20039;-66
2023/03/29 01:42:17;;;;;;;5.20;2.78;;;;;;;6.02;86.66;96477.63;4949631;29;20555;-66
2023/03/29 01:45:01;;;;;;;2.38;1.98;;;;;;;6.04;86.89;96475.78;4947673;29;20024;-66
2023/03/29 01:47:32;;;;;;;2.28;2.10;;;;;;;6.00;87.10;96474.25;4952262;29;20079;-66
2023/03/29 01:50:05;;;;;;;2.67;1.92;;;;;;;5.98;87.72;96476.94;4944948;29;20027;-66
2023/03/29 01:52:40;;;;;;;3.88;2.33;;;;;;;5.98;89.34;96474.34;4952132;29;20031;-66
2023/03/29 01:55:12;;;;;;;3.10;2.45;;;;;;;5.95;90.42;96466.69;4950874;29;20561;-66
2023/03/29 01:57:41;;;;;;;3.30;2.05;;;;;;;5.90;91.14;96455.69;4950980;29;20034;-66
2023/03/29 02:00:10;;;;;;;6.55;2.53;;;;;;;5.87;91.45;96448.03;4952759;29;20038;-65
2023/03/29 02:02:40;;;;;;;2.42;2.22;;;;;;;5.84;91.65;96424.66;4953832;29;20034;-65
2023/03/29 02:05:08;;;;;;;3.42;2.45;;;;;;;5.83;91.23;96425.59;4949973;29;20091;-66
2023/03/29 02:07:37;;;;;;;2.45;2.25;;;;;;;5.96;91.47;96423.94;4950035;29;20038;-65
2023/03/29 02:10:05;;;;;;;3.25;2.17;;;;;;;5.99;90.71;96415.88;4929650;29;20031;-65
2023/03/29 02:12:32;;;;;;;3.35;2.30;;;;;;;5.81;92.02;96383.91;4949739;29;20023;-65
2023/03/29 02:14:59;;;;;;;3.45;2.00;;;;;;;5.77;92.15;96384.19;4951875;29;20078;-66
2023/03/29 02:17:26;;;;;;;6.18;2.33;;;;;;;5.74;92.58;96386.06;4950274;29;20034;-66
2023/03/29 02:20:09;;;;;;;3.95;2.75;;;;;;;5.65;93.43;96384.03;4931106;29;20040;-66
2023/03/29 02:22:41;;;;;;;4.55;2.15;;;;;;;5.54;94.94;96389.91;4954760;29;20033;-66
2023/03/29 02:25:08;;;;;;;5.82;2.13;;;;;;;5.54;95.19;96376.84;4944576;29;20062;-66
2023/03/29 02:27:36;;;;;;;2.22;1.90;;;;;;;5.45;97.15;96372.16;4949392;29;20027;-66
2023/03/29 02:30:02;;;;;;;3.47;2.22;;;;;;;5.41;97.65;96366.28;4952181;29;20046;-66
2023/03/29 02:32:36;;;;;;;4.00;2.63;;;;;;;5.35;97.55;96366.66;4954624;29;20110;-66
2023/03/29 02:35:11;;;;;;;22.75;16.45;;;;;;;5.54;93.83;96361.16;4953149;29;20028;-66
2023/03/29 02:37:41;;;;;;;16.20;9.77;;;;;;;5.44;92.35;96368.72;4943535;28;20027;-66
2023/03/29 02:40:07;;;;;;;3.53;3.22;;;;;;;5.41;92.93;96366.28;4948986;29;20122;-66
2023/03/29 02:42:34;;;;;;;5.13;2.72;;;;;;;5.41;92.90;96374.13;4950601;29;20400;-66
2023/03/29 02:45:00;;;;;;;4.00;2.70;;;;;;;5.51;91.96;96379.63;4945850;29;20031;-66
2023/03/29 02:47:39;;;;;;;7.97;5.70;;;;;;;5.55;93.05;96367.22;4948219;29;20055;-66
2023/03/29 02:50:06;;;;;;;6.80;4.30;;;;;;;5.56;93.14;96348.00;4948709;29;20023;-67
2023/03/29 02:52:38;;;;;;;4.88;3.20;;;;;;;5.61;93.41;96352.94;4936717;29;20035;-66
2023/03/29 02:55:08;;;;;;;3.70;2.40;;;;;;;5.55;93.44;96348.94;4944349;29;20507;-66
2023/03/29 02:57:37;;;;;;;6.22;2.58;;;;;;;5.49;93.65;96350.16;4955428;29;20051;-66
2023/03/29 03:00:04;;;;;;;5.32;4.00;;;;;;;5.50;93.33;96354.44;4952334;28;20035;-66
2023/03/29 03:02:29;;;;;;;5.68;2.97;;;;;;;5.52;93.15;96351.75;4952751;29;20034;-66
2023/03/29 03:04:54;;;;;;;2.70;2.50;;;;;;;5.64;92.44;96361.44;4955355;28;20023;-66
2023/03/29 03:07:20;;;;;;;3.35;2.88;;;;;;;5.57;95.80;96365.34;4954676;29;20050;-66
2023/03/29 03:09:46;;;;;;;4.70;2.95;;;;;;;5.55;96.32;96362.00;4954278;29;20027;-66
2023/03/29 03:12:12;;;;;;;3.17;2.80;;;;;;;5.54;96.58;96362.94;4949910;29;20107;-66
2023/03/29 03:14:37;;;;;;;3.13;2.75;;;;;;;5.51;98.59;96370.97;4948772;29;20047;-66
2023/03/29 03:17:02;;;;;;;2.33;2.13;;;;;;;5.52;97.11;96372.63;4956033;29;20035;-66
2023/03/29 03:19:28;;;;;;;8.38;2.90;;;;;;;5.53;95.95;96369.94;4937253;29;20039;-66
2023/03/29 03:21:54;;;;;;;3.15;2.58;;;;;;;5.56;95.47;96372.38;4956703;29;20440;-66
2023/03/29 03:24:20;;;;;;;3.72;2.58;;;;;;;5.61;95.16;96382.50;4956421;29;20110;-66
2023/03/29 03:26:46;;;;;;;6.25;2.50;;;;;;;5.65;95.19;96370.09;4956786;29;20062;-67
2023/03/29 03:29:12;;;;;;;2.78;2.58;;;;;;;5.66;97.31;96367.41;4955305;29;20031;-66
2023/03/29 03:31:40;;;;;;;6.32;3.70;;;;;;;5.62;97.96;96380.75;4957284;29;20024;-66
2023/03/29 03:34:08;;;;;;;4.72;2.53;;;;;;;6.00;94.16;96364.47;4955947;29;20019;-66
2023/03/29 03:36:34;;;;;;;5.20;2.75;;;;;;;5.98;93.23;96366.34;4950575;28;20118;-66
2023/03/29 03:39:01;;;;;;;3.42;2.78;;;;;;;5.92;92.27;96364.94;4957168;29;20031;-66
2023/03/29 03:41:27;;;;;;;2.78;2.58;;;;;;;5.79;93.77;96354.41;4951746;29;20685;-65
2023/03/29 03:43:53;;;;;;;8.15;2.65;;;;;;;5.72;95.40;96353.97;4953494;29;20039;-66
2023/03/29 03:46:18;;;;;;;4.95;2.55;;;;;;;5.66;97.06;96340.44;4953726;29;20130;-66
2023/03/29 03:48:44;;;;;;;4.88;2.85;;;;;;;5.61;98.06;96337.28;4937692;29;20058;-66
2023/03/29 03:51:10;;;;;;;3.78;2.85;;;;;;;5.57;97.75;96342.69;4938004;29;20061;-66
2023/03/29 03:53:37;;;;;;;5.47;3.20;;;;;;;5.54;97.95;96342.03;4956573;29;20043;-66
2023/03/29 03:56:07;;;;;;;5.75;3.45;;;;;;;5.71;97.27;96361.88;4954260;29;20063;-67
2023/03/29 03:58:34;;;;;;;5.10;4.25;;;;;;;5.81;96.19;96370.00;4938106;29;20035;-66
2023/03/29 04:01:00;;;;;;;8.68;4.82;;;;;;;5.76;97.17;96382.50;4947588;29;20106;-66
2023/03/29 04:03:26;;;;;;;4.45;4.05;;;;;;;5.82;98.29;96382.13;4936941;29;20036;-66
2023/03/29 04:05:52;;;;;;;3.47;3.17;;;;;;;5.77;99.28;96358.06;4954258;29;20122;-66
2023/03/29 04:08:18;;;;;;;4.53;3.28;;;;;;;5.72;100.00;96342.66;4956644;29;20047;-66
2023/03/29 04:10:54;;;;;;;12.43;5.53;;;;;;;5.63;100.00;96356.31;4955896;29;20023;-66
2023/03/29 04:13:20;;;;;;;17.48;9.20;;;;;;;5.54;100.00;96355.94;4937397;29;20114;-66
2023/03/29 04:15:48;;;;;;;6.22;3.28;;;;;;;5.52;100.00;96354.34;4945764;29;20031;-66
2023/03/29 04:18:15;;;;;;;4.95;3.35;;;;;;;5.57;100.00;96353.16;4955892;28;20038;-67
2023/03/29 04:20:41;;;;;;;8.93;3.42;;;;;;;5.53;100.00;96359.50;4957097;28;20043;-66
2023/03/29 04:23:06;;;;;;;5.93;3.25;;;;;;;5.52;100.00;96351.75;4954891;29;20082;-67
2023/03/29 04:25:32;;;;;;;5.90;3.55;;;;;;;5.51;100.00;96340.44;4954345;29;20055;-66
2023/03/29 04:27:57;;;;;;;4.90;3.25;;;;;;;5.44;100.00;96341.75;4952737;29;20031;-66
2023/03/29 04:30:23;;;;;;;6.30;3.55;;;;;;;5.33;100.00;96334.59;4952924;29;20528;-66
2023/03/29 04:32:48;;;;;;;7.05;2.58;;;;;;;5.33;100.00;96344.22;4954141;29;20041;-66
2023/03/29 04:35:14;;;;;;;25.95;12.55;;;;;;;5.51;100.00;96342.22;4949233;29;20019;-66
2023/03/29 04:37:40;;;;;;;26.17;11.25;;;;;;;5.61;100.00;96345.13;4954995;29;20038;-66
2023/03/29 04:40:13;;;;;;;9.32;3.70;;;;;;;5.71;100.00;96340.97;4953994;29;20050;-66
2023/03/29 04:42:43;;;;;;;5.18;3.45;;;;;;;5.65;100.00;96337.00;4947876;29;20478;-67
2023/03/29 04:45:09;;;;;;;3.28;2.97;;;;;;;5.53;100.00;96341.22;4930441;29;20031;-66
2023/03/29 04:47:35;;;;;;;5.28;3.08;;;;;;;5.34;100.00;96341.47;4953886;29;20048;-66
2023/03/29 04:50:01;;;;;;;5.60;3.03;;;;;;;5.23;100.00;96336.91;4956011;29;20456;-66
2023/03/29 04:52:26;;;;;;;3.38;3.03;;;;;;;5.31;100.00;96336.44;4957177;29;20099;-66
2023/03/29 04:54:52;;;;;;;5.93;3.55;;;;;;;5.32;100.00;96342.53;4948042;29;20532;-66
2023/03/29 04:57:17;;;;;;;6.60;3.42;;;;;;;5.29;100.00;96354.00;4957171;29;20105;-66
2023/03/29 04:59:43;;;;;;;5.18;3.22;;;;;;;5.21;100.00;96351.84;4952899;29;20027;-66
2023/03/29 05:02:08;;;;;;;9.75;3.35;;;;;;;5.24;100.00;96356.03;4923408;29;20122;-66
2023/03/29 05:04:35;;;;;;;6.18;3.50;;;;;;;5.26;100.00;96357.59;4951492;29;20408;-66
2023/03/29 05:07:01;;;;;;;9.18;4.25;;;;;;;5.26;100.00;96354.19;4954416;29;20122;-66
2023/03/29 05:09:26;;;;;;;5.95;3.72;;;;;;;5.33;100.00;96352.88;4951875;29;20063;-66
2023/03/29 05:11:52;;;;;;;5.30;3.38;;;;;;;5.29;100.00;96354.00;4950611;29;20049;-67
2023/03/29 05:14:17;;;;;;;6.10;4.60;;;;;;;5.24;100.00;96346.41;4954514;29;20028;-66
2023/03/29 05:16:43;;;;;;;8.95;4.95;;;;;;;5.32;100.00;96347.75;4957564;29;20042;-66
2023/03/29 05:19:10;;;;;;;8.40;4.40;;;;;;;5.38;100.00;96352.59;4951942;29;20034;-66
2023/03/29 05:21:35;;;;;;;9.40;4.40;;;;;;;5.38;100.00;96350.81;4949851;29;20033;-66
2023/03/29 05:24:01;;;;;;;6.10;3.78;;;;;;;5.26;100.00;96352.38;4952213;29;20023;-65
2023/03/29 05:26:28;;;;;;;7.43;3.78;;;;;;;5.24;100.00;96348.22;4952710;28;20037;-65
2023/03/29 05:28:53;;;;;;;6.03;4.22;;;;;;;5.24;100.00;96350.81;4950101;29;20052;-65
2023/03/29 05:31:19;;;;;;;7.45;3.88;;;;;;;5.26;100.00;96355.00;4936766;29;20023;-66
2023/03/29 05:33:47;;;;;;;7.57;3.92;;;;;;;5.28;100.00;96352.31;4950243;29;20115;-65
2023/03/29 05:36:14;;;;;;;6.28;4.03;;;;;;;5.29;100.00;96343.53;4952316;29;20637;-65
2023/03/29 05:38:43;;;;;;;7.93;4.85;;;;;;;5.32;100.00;96348.56;4951406;29;20554;-66
2023/03/29 05:41:10;;;;;;;5.97;4.68;;;;;;;5.33;100.00;96358.09;4950459;29;20023;-66
2023/03/29 05:43:35;;;;;;;7.65;5.10;;;;;;;5.32;100.00;96359.03;4945151;29;20032;-66
2023/03/29 05:46:01;;;;;;;9.57;5.00;;;;;;;5.33;100.00;96355.47;4934303;29;20570;-65
2023/03/29 05:48:27;;;;;;;5.68;4.65;;;;;;;5.33;100.00;96350.25;4954693;29;20062;-65
2023/03/29 05:50:55;;;;;;;6.70;5.03;;;;;;;5.36;100.00;96350.06;4953760;29;20034;-65
2023/03/29 05:53:22;;;;;;;13.27;8.02;;;;;;;5.38;100.00;96356.03;4955755;29;20023;-65
2023/03/29 05:55:48;;;;;;;15.18;11.48;;;;;;;5.40;100.00;96351.53;4948755;29;20023;-65
2023/03/29 05:58:14;;;;;;;12.23;10.00;;;;;;;5.41;100.00;96352.41;4953314;29;20026;-65
2023/03/29 06:00:40;;;;;;;11.93;9.05;;;;;;;5.46;100.00;96345.13;4944183;29;20031;-65
2023/03/29 06:03:07;;;;;;;11.35;7.70;;;;;;;5.54;100.00;96349.88;4937609;29;20035;-65
2023/03/29 06:05:34;;;;;;;14.23;7.47;;;;;;;5.60;100.00;96344.25;4953179;29;20034;-65
2023/03/29 06:08:00;;;;;;;20.85;8.50;;;;;;;5.63;100.00;96351.91;4948407;29;20038;-65
2023/03/29 06:10:26;;;;;;;14.18;8.77;;;;;;;5.65;100.00;96360.50;4948148;29;20027;-65
2023/03/29 06:12:51;;;;;;;11.27;7.70;;;;;;;5.63;100.00;96357.13;4949863;29;20071;-65
2023/03/29 06:15:17;;;;;;;10.45;8.02;;;;;;;5.78;100.00;96370.19;4950744;29;20035;-64
2023/03/29 06:17:46;;;;;;;15.20;10.80;;;;;;;5.93;100.00;96376.22;4949751;29;20062;-65
2023/03/29 06:20:12;;;;;;;14.73;10.88;;;;;;;5.90;100.00;96372.03;4950326;29;20196;-65
2023/03/29 06:22:38;;;;;;;18.17;9.30;;;;;;;6.00;100.00;96374.91;4949815;29;20110;-65
2023/03/29 06:25:06;;;;;;;9.23;8.15;;;;;;;6.09;100.00;96376.97;4948863;29;20118;-65
2023/03/29 06:27:31;;;;;;;13.05;7.53;;;;;;;6.14;100.00;96374.06;4947768;29;20056;-65
2023/03/29 06:29:58;;;;;;;16.25;10.63;;;;;;;6.23;100.00;96381.31;4935357;29;20042;-65
2023/03/29 06:32:24;;;;;;;14.75;10.35;;;;;;;6.27;100.00;96385.41;4950188;29;20031;-65
2023/03/29 06:34:50;;;;;;;28.83;15.35;;;;;;;6.26;100.00;96381.13;4952446;29;20031;-66
2023/03/29 06:37:15;;;;;;;24.42;16.33;;;;;;;6.28;100.00;96383.66;4953980;29;20059;-64
2023/03/29 06:39:41;;;;;;;25.77;17.13;;;;;;;6.32;100.00;96386.91;4932506;29;20063;-67
2023/03/29 06:42:06;;;;;;;30.90;18.13;;;;;;;6.34;100.00;96377.19;4954395;28;20499;-66
2023/03/29 06:44:32;;;;;;;31.70;17.75;;;;;;;6.40;100.00;96376.78;4954951;29;20031;-65
2023/03/29 06:46:58;;;;;;;25.67;17.38;;;;;;;6.50;100.00;96383.09;4954548;29;20046;-66
2023/03/29 06:49:23;;;;;;;26.88;14.05;;;;;;;6.53;100.00;96382.91;4952728;28;20034;-65
2023/03/29 06:51:49;;;;;;;23.92;15.02;;;;;;;6.55;100.00;96385.41;4954133;29;20472;-65
2023/03/29 06:54:14;;;;;;;20.05;13.45;;;;;;;6.64;100.00;96379.59;4949300;29;20035;-65
2023/03/29 06:56:39;;;;;;;36.03;16.83;;;;;;;6.73;100.00;96381.59;4954395;29;20066;-65
2023/03/29 06:59:05;;;;;;;30.55;16.98;;;;;;;6.82;100.00;96392.38;4950608;29;20034;-66
2023/03/29 07:01:31;;;;;;;35.65;21.15;;;;;;;6.87;100.00;96382.47;4936649;29;20445;-66
2023/03/29 07:03:59;;;;;;;36.90;25.35;;;;;;;6.93;100.00;96389.06;4950613;29;20039;-66
2023/03/29 07:06:25;;;;;;;34.38;24.73;;;;;;;6.96;100.00;96391.47;4953191;29;20023;-66
2023/03/29 07:08:51;;;;;;;24.30;15.85;;;;;;;7.09;100.00;96394.94;4954276;29;20034;-66
2023/03/29 07:11:19;;;;;;;19.85;10.65;;;;;;;7.03;100.00;96400.59;4957256;29;20042;-66
2023/03/29 07:13:45;;;;;;;14.30;10.02;;;;;;;7.10;100.00;96398.44;4953877;29;20028;-66
2023/03/29 07:16:11;;;;;;;15.65;12.68;;;;;;;7.07;100.00;96402.06;4952553;29;20031;-66
2023/03/29 07:18:38;;;;;;;15.48;9.70;;;;;;;7.12;100.00;96404.38;4955789;29;20091;-66
2023/03/29 07:21:04;;;;;;;12.75;8.65;;;;;;;7.18;100.00;96398.72;4957029;29;20110;-66
2023/03/29 07:23:30;;;;;;;42.03;21.58;;;;;;;7.28;100.00;96401.56;4953004;29;20042;-66
2023/03/29 07:25:55;;;;;;;17.77;11.65;;;;;;;7.35;100.00;96402.81;4953633;29;20027;-66
2023/03/29 07:28:21;;;;;;;27.02;14.65;;;;;;;7.42;100.00;96401.47;4956592;29;20070;-66
2023/03/29 07:30:46;;;;;;;13.68;8.55;;;;;;;7.50;100.00;96407.97;4955487;28;20110;-66
2023/03/29 07:33:12;;;;;;;15.82;7.57;;;;;;;7.66;100.00;96407.75;4934363;29;20047;-66
2023/03/29 07:35:38;;;;;;;9.20;5.90;;;;;;;7.77;100.00;96410.47;4953887;29;20563;-66
2023/03/29 07:38:04;;;;;;;8.13;6.40;;;;;;;7.91;100.00;96420.00;4955851;29;20079;-67
2023/03/29 07:40:30;;;;;;;8.90;5.60;;;;;;;7.96;99.93;96415.25;4952402;29;20027;-66
2023/03/29 07:42:56;;;;;;;8.50;4.45;;;;;;;7.98;98.38;96415.97;4957579;29;20027;-66
2023/03/29 07:45:24;;;;;;;8.10;5.10;;;;;;;8.01;98.97;96415.75;4954355;29;20053;-66
2023/03/29 07:47:54;;;;;;;8.05;4.50;;;;;;;8.07;97.75;96413.66;4953349;29;20059;-66
2023/03/29 07:50:19;;;;;;;10.57;4.72;;;;;;;8.20;96.12;96414.47;4955024;29;20057;-66
2023/03/29 07:52:45;;;;;;;10.40;4.18;;;;;;;8.30;91.99;96415.50;4957253;29;20077;-66
2023/03/29 07:55:12;;;;;;;7.50;3.25;;;;;;;8.50;94.03;96405.34;4951553;29;20019;-66
2023/03/29 07:57:37;;;;;;;11.32;4.40;;;;;;;8.72;93.15;96404.63;4951886;29;20031;-66
2023/03/29 08:00:13;;;;;;;7.40;5.25;;;;;;;8.96;91.05;96400.31;4933527;29;20030;-66
2023/03/29 08:02:39;;;;;;;9.02;5.05;;;;;;;9.10;90.87;96400.09;4950375;29;20556;-67
2023/03/29 08:05:05;;;;;;;14.35;4.97;;;;;;;9.26;91.64;96398.94;4950486;29;20118;-67
2023/03/29 08:07:31;;;;;;;11.20;4.18;;;;;;;9.32;90.39;96403.72;4953477;29;20047;-67
2023/03/29 08:09:56;;;;;;;6.53;3.90;;;;;;;9.20;89.38;96412.56;4953386;29;20032;-66
2023/03/29 08:12:21;;;;;;;13.35;4.32;;;;;;;9.05;91.08;96410.13;4954651;29;20139;-66
2023/03/29 08:14:47;;;;;;;12.88;4.28;;;;;;;8.99;93.41;96407.97;4958352;29;20023;-66
2023/03/29 08:17:12;;;;;;;9.23;4.28;;;;;;;9.00;95.56;96414.88;4953004;29;20042;-67
2023/03/29 08:19:38;;;;;;;14.35;4.18;;;;;;;9.09;95.42;96416.00;4952613;28;20102;-67
2023/03/29 08:22:03;;;;;;;13.55;3.70;;;;;;;9.16;94.91;96425.91;4953438;29;20035;-67
2023/03/29 08:24:28;;;;;;;18.27;3.80;;;;;;;9.32;93.97;96422.13;4952118;28;20050;-67
2023/03/29 08:26:54;;;;;;;17.48;4.78;;;;;;;9.51;92.27;96423.38;4953104;29;20547;-67
2023/03/29 08:29:21;;;;;;;12.55;4.38;;;;;;;9.75;90.73;96429.34;4950710;29;20038;-67
2023/03/29 08:31:46;;;;;;;16.98;6.05;;;;;;;10.27;87.23;96426.22;4939667;29;20104;-67
2023/03/29 08:34:12;;;;;;;15.30;6.32;;;;;;;10.24;87.22;96426.47;4954234;29;20054;-67
2023/03/29 08:36:39;;;;;;;19.23;7.03;;;;;;;10.37;89.06;96431.59;4938359;29;20082;-67
2023/03/29 08:39:04;;;;;;;13.50;6.82;;;;;;;10.34;88.78;96417.84;4956091;29;20059;-67
2023/03/29 08:41:46;;;;;;;17.60;6.65;;;;;;;10.30;88.83;96417.25;4955684;29;20027;-67
2023/03/29 08:44:41;;;;;;;18.83;5.93;;;;;;;10.33;88.15;96409.09;4952000;29;20034;-67
2023/03/29 08:47:48;;;;;;;14.52;5.40;;;;;;;10.38;85.91;96412.19;4932552;29;20066;-69
2023/03/29 08:50:14;;;;;;;10.57;4.60;;;;;;;10.54;84.99;96405.75;4952576;29;20392;-66
2023/03/29 08:52:45;;;;;;;21.20;5.18;;;;;;;10.65;84.15;96407.50;4952591;29;20592;-66
2023/03/29 08:55:27;;;;;;;13.85;6.38;;;;;;;10.97;82.21;96402.22;4953478;29;20053;-66
2023/03/29 08:57:54;;;;;;;13.10;5.43;;;;;;;11.01;83.39;96402.81;4954857;29;20051;-67
2023/03/29 09:00:34;;;;;;;13.38;4.80;;;;;;;10.97;83.07;96398.78;4957160;29;20046;-66
2023/03/29 09:03:01;;;;;;;10.00;4.38;;;;;;;11.02;83.53;96401.84;4948970;29;20058;-66
2023/03/29 09:05:33;;;;;;;15.75;4.88;;;;;;;11.16;82.07;96401.56;4953635;28;20119;-67
2023/03/29 09:08:00;;;;;;;20.58;4.63;;;;;;;11.40;80.82;96400.47;4944288;29;20111;-68
2023/03/29 09:10:41;;;;;;;10.50;4.40;;;;;;;11.72;79.37;96394.22;4952712;29;20031;-67
2023/03/29 09:13:24;;;;;;;16.80;4.38;;;;;;;12.24;76.81;96390.69;4932844;29;20381;-67
2023/03/29 09:16:16;;;;;;;21.58;5.63;;;;;;;12.53;76.57;96386.44;4949108;29;20039;-68
2023/03/29 09:19:00;;;;;;;15.63;5.25;;;;;;;12.48;76.63;96386.00;4947752;29;20051;-68
2023/03/29 09:21:49;;;;;;;17.70;6.07;;;;;;;12.34;76.76;96384.59;4934297;29;20035;-68
2023/03/29 09:24:36;;;;;;;12.02;5.93;;;;;;;12.21;76.95;96382.22;4950181;29;20031;-68
2023/03/29 09:27:21;;;;;;;13.32;5.68;;;;;;;12.14;75.48;96385.38;4947485;28;20039;-68
2023/03/29 09:30:14;;;;;;;18.53;5.53;;;;;;;12.18;76.73;96380.66;4918207;29;20091;-68
2023/03/29 09:32:42;;;;;;;15.02;5.32;;;;;;;12.37;77.23;96373.75;4949887;29;20027;-68
2023/03/29 09:35:17;;;;;;;18.10;5.63;;;;;;;12.51;77.57;96383.94;4955828;29;20114;-68
2023/03/29 09:37:44;;;;;;;12.68;4.90;;;;;;;12.72;76.98;96381.16;4954359;28;20415;-68
2023/03/29 09:40:18;;;;;;;20.75;5.65;;;;;;;13.14;75.17;96381.84;4951762;29;20512;-68
2023/03/29 09:42:44;;;;;;;21.23;6.57;;;;;;;13.60;72.83;96390.00;4951202;29;20103;-68
2023/03/29 09:45:10;;;;;;;14.40;5.57;;;;;;;13.59;70.91;96393.59;4953754;29;20120;-68
2023/03/29 09:47:44;;;;;;;17.73;5.32;;;;;;;13.43;71.07;96405.63;4951817;29;20055;-68
2023/03/29 09:50:20;;;;;;;13.38;4.10;;;;;;;13.18;70.16;96402.59;4956181;29;20511;-68
2023/03/29 09:52:48;;;;;;;18.00;4.07;;;;;;;13.19;69.84;96406.03;4952891;29;20514;-68
2023/03/29 09:55:16;;;;;;;19.88;4.63;;;;;;;13.30;70.33;96402.41;4950545;29;20029;-68
2023/03/29 09:57:42;;;;;;;11.50;4.35;;;;;;;13.15;69.35;96396.72;4952753;29;20031;-68
2023/03/29 10:00:09;;;;;;;11.18;3.42;;;;;;;13.04;67.94;96403.00;4950426;29;20054;-68
2023/03/29 10:02:35;;;;;;;9.95;3.15;;;;;;;13.24;65.21;96397.69;4952338;29;20477;-68
2023/03/29 10:05:04;;;;;;;11.85;4.22;;;;;;;13.09;64.88;96405.25;4949208;29;20041;-68
2023/03/29 10:07:43;;;;;;;8.70;3.60;;;;;;;12.87;64.67;96410.66;4950521;29;20035;-68
2023/03/29 10:10:17;;;;;;;9.57;3.63;;;;;;;12.60;65.90;96401.59;4948833;29;20150;-68
2023/03/29 10:12:50;;;;;;;8.98;3.20;;;;;;;12.51;66.32;96397.16;4935066;29;20043;-68
2023/03/29 10:15:17;;;;;;;9.40;3.38;;;;;;;12.58;65.61;96403.53;4953042;29;20092;-68
2023/03/29 10:17:44;;;;;;;8.98;3.00;;;;;;;12.64;64.38;96407.44;4951399;28;20130;-68
2023/03/29 10:20:17;;;;;;;8.00;3.72;;;;;;;12.51;66.00;96415.63;4938507;29;20031;-68
2023/03/29 10:22:53;;;;;;;7.53;3.65;;;;;;;12.53;63.10;96403.13;4952642;29;20559;-68
2023/03/29 10:25:18;;;;;;;8.00;3.40;;;;;;;12.45;63.92;96398.53;4953232;29;20475;-69
2023/03/29 10:27:46;;;;;;;13.18;3.80;;;;;;;12.62;64.93;96398.81;4951061;29;20027;-69
2023/03/29 10:30:22;;;;;;;11.27;3.40;;;;;;;12.44;65.04;96385.44;4951834;29;20050;-67
2023/03/29 10:32:55;;;;;;;6.55;3.60;;;;;;;12.45;65.11;96381.81;4951842;29;20023;-67
2023/03/29 10:35:27;;;;;;;8.00;3.90;;;;;;;12.36;63.76;96382.66;4950049;29;21006;-66
2023/03/29 10:37:55;;;;;;;7.88;3.72;;;;;;;12.24;67.70;96377.47;4954166;29;20035;-66
2023/03/29 10:40:31;;;;;;;10.63;4.15;;;;;;;12.30;66.09;96376.97;4948506;29;20110;-66
2023/03/29 10:43:10;;;;;;;8.60;4.50;;;;;;;12.42;67.57;96384.75;4936018;29;20491;-66
2023/03/29 10:45:37;;;;;;;30.15;15.23;;;;;;;12.52;69.23;96371.56;4951859;29;20082;-66
2023/03/29 10:48:05;;;;;;;12.38;3.90;;;;;;;12.54;69.32;96369.59;4951464;29;20059;-66
2023/03/29 10:50:33;;;;;;;9.10;3.38;;;;;;;12.65;66.56;96356.28;4954008;29;21384;-67
2023/03/29 10:53:01;;;;;;;9.65;4.78;;;;;;;12.74;65.18;96354.63;4951816;29;20030;-67
2023/03/29 10:55:33;;;;;;;15.80;6.57;;;;;;;13.05;64.86;96351.81;4946600;29;20030;-68
2023/03/29 10:58:01;;;;;;;8.98;3.97;;;;;;;13.54;64.05;96348.25;4950944;29;20027;-67
2023/03/29 11:00:31;;;;;;;5.80;3.55;;;;;;;13.76;62.96;96349.72;4947325;29;20038;-68
2023/03/29 11:03:11;;;;;;;11.30;5.32;;;;;;;13.71;61.69;96351.97;4954112;29;20031;-68
2023/03/29 11:05:46;;;;;;;7.68;4.20;;;;;;;13.61;61.56;96350.16;4948496;29;20031;-68
2023/03/29 11:08:25;;;;;;;6.97;4.13;;;;;;;13.54;62.74;96353.53;4952206;29;20023;-68
2023/03/29 11:11:18;;;;;;;15.07;3.80;;;;;;;13.50;60.33;96350.38;4949119;29;20043;-68
2023/03/29 11:13:56;;;;;;;13.13;3.53;;;;;;;13.74;61.78;96354.31;4951432;29;20027;-67
2023/03/29 11:16:32;;;;;;;11.73;4.10;;;;;;;13.82;62.63;96354.41;4950822;29;20031;-68
2023/03/29 11:19:00;;;;;;;10.85;3.97;;;;;;;14.11;62.01;96363.19;4950572;29;20074;-68
2023/03/29 11:21:44;;;;;;;9.10;3.97;;;;;;;14.39;61.48;96363.16;4954198;29;20471;-68
2023/03/29 11:24:26;;;;;;;20.50;4.85;;;;;;;14.50;60.28;96364.75;4948797;28;20035;-67
2023/03/29 11:26:54;;;;;;;9.85;4.03;;;;;;;14.46;62.36;96361.56;4957362;29;20098;-67
2023/03/29 11:29:28;;;;;;;10.27;4.05;;;;;;;14.36;61.43;96358.97;4956760;29;20031;-67
2023/03/29 11:31:57;;;;;;;7.90;4.18;;;;;;;14.69;59.73;96356.69;4953941;29;20512;-67
2023/03/29 11:34:51;;;;;;;10.85;4.05;;;;;;;14.83;58.68;96358.00;4953064;29;20026;-68
2023/03/29 11:37:35;;;;;;;8.43;3.60;;;;;;;14.62;57.89;96345.03;4932683;29;20043;-68
2023/03/29 11:40:38;;;;;;;12.70;3.53;;;;;;;14.77;58.08;96336.56;4957601;29;20118;-67
2023/03/29 11:43:24;;;;;;;9.25;4.07;;;;;;;14.65;58.11;96327.97;4957359;28;20444;-68